createdAt,value
2022-07-27T00:01:20.413Z,99.90
2022-07-27T00:03:50.818Z,99.90
2022-07-27T00:06:20.311Z,99.90
2022-07-27T00:12:35.514Z,99.90
2022-07-27T00:15:07.167Z,99.90
2022-07-27T00:17:37.869Z,99.90
2022-07-27T00:20:07.949Z,99.90
2022-07-27T00:22:43.392Z,99.90
2022-07-27T00:25:16.436Z,99.90
2022-07-27T00:27:49.957Z,99.90
2022-07-27T00:30:19.464Z,99.90
2022-07-27T00:32:48.529Z,99.90
2022-07-27T00:35:18.259Z,99.90
2022-07-27T00:37:47.027Z,99.90
2022-07-27T00:40:16.698Z,99.90
2022-07-27T00:42:54.547Z,99.90
2022-07-27T00:45:27.068Z,99.90
2022-07-27T00:47:56.897Z,99.90
2022-07-27T00:50:59.056Z,99.90
2022-07-27T00:53:32.201Z,99.90
2022-07-27T00:56:04.283Z,99.90
2022-07-27T00:58:42.404Z,99.90
2022-07-27T01:01:11.612Z,99.90
2022-07-27T01:03:43.992Z,99.90
2022-07-27T01:06:27.501Z,99.90
2022-07-27T01:09:18.319Z,99.90
2022-07-27T01:11:54.593Z,99.90
2022-07-27T01:14:28.599Z,99.90
2022-07-27T01:16:58.151Z,99.90
2022-07-27T01:19:59.580Z,99.90
2022-07-27T01:22:28.675Z,99.90
2022-07-27T01:24:57.747Z,99.90
2022-07-27T01:32:38.095Z,99.90
2022-07-27T01:35:07.277Z,99.90
2022-07-27T01:37:39.899Z,99.90
2022-07-27T01:40:24.099Z,99.90
2022-07-27T01:42:53.688Z,99.90
2022-07-27T01:45:55.221Z,99.90
2022-07-27T01:48:25.034Z,99.90
2022-07-27T02:14:52.141Z,99.90
2022-07-27T02:17:29.706Z,99.90
2022-07-27T02:19:59.737Z,99.90
2022-07-27T02:22:38.575Z,99.90
2022-07-27T02:25:08.479Z,99.90
2022-07-27T02:27:37.424Z,99.90
2022-07-27T02:30:14.951Z,99.90
2022-07-27T02:32:47.403Z,99.90
2022-07-27T02:41:03.061Z,99.90
2022-07-27T02:43:34.643Z,99.90
2022-07-27T02:46:06.573Z,99.90
2022-07-27T02:49:07.902Z,99.90
2022-07-27T02:51:37.262Z,99.90
2022-07-27T02:54:15.499Z,99.90
2022-07-27T02:56:47.110Z,99.90
2022-07-27T02:59:18.755Z,99.90
2022-07-27T03:22:22.114Z,99.90
2022-07-27T03:24:52.395Z,99.90
2022-07-27T03:27:31.291Z,99.90
2022-07-27T03:35:26.166Z,99.90
2022-07-27T03:38:07.403Z,99.90
2022-07-27T03:40:42.111Z,99.90
2022-07-27T03:43:11.618Z,99.90
2022-07-27T03:51:05.549Z,99.90
2022-07-27T03:54:07.410Z,99.90
2022-07-27T03:56:40.852Z,99.90
2022-07-27T03:59:11.175Z,99.90
2022-07-27T04:01:41.038Z,99.90
2022-07-27T04:04:18.566Z,99.90
2022-07-27T04:11:13.892Z,99.90
2022-07-27T04:13:51.275Z,99.90
2022-07-27T04:16:24.050Z,99.90
2022-07-27T04:18:59.548Z,99.90
2022-07-27T04:27:25.267Z,99.90
2022-07-27T04:30:09.459Z,99.90
2022-07-27T04:32:39.946Z,99.90
2022-07-27T04:40:58.254Z,99.90
2022-07-27T04:52:11.700Z,99.90
2022-07-27T05:31:53.428Z,99.90
2022-07-27T05:34:24.173Z,99.90
2022-07-27T05:37:01.084Z,99.90
2022-07-27T05:39:31.559Z,99.90
2022-07-27T05:47:56.567Z,99.90
2022-07-27T05:50:28.853Z,99.90
2022-07-27T05:53:03.836Z,99.90
2022-07-27T06:02:55.060Z,99.90
2022-07-27T06:10:42.633Z,99.90
2022-07-27T06:14:42.826Z,99.90
2022-07-27T06:17:13.277Z,99.90
2022-07-27T06:19:50.415Z,99.90
2022-07-27T06:33:14.356Z,99.90
2022-07-27T06:35:43.561Z,99.90
2022-07-27T06:52:34.200Z,99.90
2022-07-27T06:55:05.782Z,99.90
2022-07-27T07:00:33.978Z,99.90
2022-07-27T07:11:48.617Z,99.90
2022-07-27T07:14:20.688Z,99.90
2022-07-27T07:16:53.431Z,99.90
2022-07-27T07:19:23.232Z,99.90
2022-07-27T07:24:59.327Z,99.90
2022-07-27T07:27:33.867Z,99.90
2022-07-27T07:30:05.026Z,99.90
2022-07-27T07:32:36.164Z,99.90
2022-07-27T07:36:12.775Z,99.90
2022-07-27T07:38:56.578Z,99.90
2022-07-27T07:41:28.040Z,99.90
2022-07-27T07:43:59.715Z,99.90
2022-07-27T07:46:29.682Z,99.90
2022-07-27T07:48:59.117Z,99.90
2022-07-27T07:51:28.264Z,99.90
2022-07-27T07:54:00.462Z,99.90
2022-07-27T07:56:30.243Z,99.90
2022-07-27T07:58:59.511Z,99.90
2022-07-27T08:01:28.521Z,99.90
2022-07-27T08:03:57.522Z,99.90
2022-07-27T08:06:26.041Z,99.90
2022-07-27T08:08:55.262Z,99.90
2022-07-27T08:11:23.753Z,99.90
2022-07-27T08:13:52.698Z,99.90
2022-07-27T08:16:30.053Z,99.90
2022-07-27T08:19:00.571Z,99.90
2022-07-27T08:21:29.148Z,99.90
2022-07-27T08:24:04.303Z,99.90
2022-07-27T08:27:09.122Z,98.60
2022-07-27T08:29:37.641Z,96.80
2022-07-27T08:32:06.731Z,98.10
2022-07-27T08:34:37.024Z,96.70
2022-07-27T08:38:35.345Z,98.40
2022-07-27T08:41:07.090Z,99.90
2022-07-27T08:43:37.539Z,98.90
2022-07-27T08:47:43.011Z,97.00
2022-07-27T08:50:27.951Z,95.90
2022-07-27T08:53:09.197Z,96.10
2022-07-27T08:55:48.075Z,97.20
2022-07-27T08:58:23.355Z,97.00
2022-07-27T09:00:53.394Z,96.60
2022-07-27T09:03:24.330Z,95.60
2022-07-27T09:05:59.027Z,94.50
2022-07-27T09:09:20.039Z,92.30
2022-07-27T09:12:54.226Z,94.70
2022-07-27T09:15:34.140Z,91.90
2022-07-27T09:18:23.352Z,92.20
2022-07-27T09:38:27.373Z,84.40
2022-07-27T09:41:07.931Z,88.20
2022-07-27T09:44:34.586Z,88.90
2022-07-27T09:47:31.073Z,87.40
2022-07-27T09:50:18.939Z,84.50
2022-07-27T09:52:48.479Z,85.70
2022-07-27T09:55:21.676Z,81.00
2022-07-27T09:57:56.962Z,78.60
2022-07-27T10:14:27.435Z,80.80
2022-07-27T10:17:00.286Z,77.70
2022-07-27T10:19:46.589Z,76.40
2022-07-27T10:22:52.279Z,80.50
2022-07-27T10:25:21.353Z,80.70
2022-07-27T10:28:23.057Z,78.70
2022-07-27T10:30:54.553Z,78.50
2022-07-27T10:38:51.052Z,83.70
2022-07-27T10:41:29.961Z,78.30
2022-07-27T10:44:23.961Z,78.40
2022-07-27T10:52:42.343Z,72.10
2022-07-27T10:55:35.801Z,77.90
2022-07-27T10:58:04.274Z,78.10
2022-07-27T11:01:05.376Z,76.70
2022-07-27T11:03:43.954Z,70.10
2022-07-27T11:06:37.825Z,69.00
2022-07-27T11:12:16.006Z,73.20
2022-07-27T11:14:54.339Z,75.30
2022-07-27T11:18:03.430Z,75.00
2022-07-27T11:20:31.292Z,73.60
2022-07-27T11:26:16.485Z,70.20
2022-07-27T11:28:49.716Z,71.10
2022-07-27T11:31:38.294Z,68.60
2022-07-27T11:34:18.156Z,66.10
2022-07-27T11:36:51.516Z,67.60
2022-07-27T11:44:57.299Z,66.30
2022-07-27T11:47:26.594Z,65.00
2022-07-27T11:50:12.728Z,63.60
2022-07-27T11:52:41.280Z,61.90
2022-07-27T11:55:12.903Z,63.10
2022-07-27T11:58:16.919Z,59.70
2022-07-27T12:00:46.252Z,63.60
2022-07-27T12:03:32.894Z,63.70
2022-07-27T12:12:03.812Z,59.30
2022-07-27T12:14:36.575Z,64.60
2022-07-27T12:17:44.794Z,62.00
2022-07-27T12:20:23.671Z,60.40
2022-07-27T12:22:55.009Z,62.20
2022-07-27T12:25:24.078Z,59.50
2022-07-27T12:28:05.311Z,59.40
2022-07-27T12:30:52.523Z,59.90
2022-07-27T12:33:37.578Z,62.90
2022-07-27T12:36:08.530Z,61.20
2022-07-27T12:38:45.358Z,61.10
2022-07-27T12:41:29.662Z,62.30
2022-07-27T12:44:10.114Z,62.90
2022-07-27T12:46:54.753Z,61.80
2022-07-27T12:49:44.619Z,59.40
2022-07-27T12:52:14.433Z,59.60
2022-07-27T12:54:49.150Z,60.40
2022-07-27T12:57:46.621Z,56.80
2022-07-27T13:00:18.796Z,57.50
2022-07-27T13:02:52.432Z,60.80
2022-07-27T13:05:21.267Z,59.60
2022-07-27T13:07:49.687Z,59.60
2022-07-27T13:10:22.109Z,58.50
2022-07-27T13:12:51.433Z,59.70
2022-07-27T13:15:20.102Z,58.70
2022-07-27T13:17:49.668Z,58.60
2022-07-27T13:20:22.308Z,57.80
2022-07-27T13:22:50.687Z,58.30
2022-07-27T13:25:20.468Z,57.60
2022-07-27T13:27:55.870Z,57.70
2022-07-27T13:30:32.891Z,57.10
2022-07-27T13:33:02.119Z,57.10
2022-07-27T13:36:05.215Z,59.10
2022-07-27T13:38:44.331Z,56.40
2022-07-27T13:41:13.094Z,56.80
2022-07-27T13:43:45.940Z,58.90
2022-07-27T13:46:18.769Z,58.80
2022-07-27T13:48:48.331Z,59.90
2022-07-27T13:51:17.280Z,60.50
2022-07-27T13:53:45.533Z,60.10
2022-07-27T13:56:23.780Z,59.70
2022-07-27T13:58:52.919Z,59.30
2022-07-27T14:01:21.928Z,58.30
2022-07-27T14:04:27.561Z,57.70
2022-07-27T14:06:57.987Z,58.20
2022-07-27T14:09:46.047Z,59.20
2022-07-27T14:12:15.762Z,59.00
2022-07-27T14:14:47.702Z,60.80
2022-07-27T14:17:15.894Z,61.20
2022-07-27T14:19:44.468Z,59.40
2022-07-27T14:22:13.347Z,59.40
2022-07-27T14:24:41.539Z,58.30
2022-07-27T14:27:10.786Z,57.80
2022-07-27T14:29:39.363Z,58.00
2022-07-27T14:32:08.368Z,58.40
2022-07-27T14:34:37.930Z,60.50
2022-07-27T14:37:06.917Z,58.20
2022-07-27T14:39:36.518Z,57.50
2022-07-27T14:42:04.833Z,58.50
2022-07-27T14:44:36.640Z,58.70
2022-07-27T14:47:05.333Z,59.30
2022-07-27T14:49:34.819Z,59.10
2022-07-27T14:52:03.489Z,59.60
2022-07-27T14:54:36.007Z,58.70
2022-07-27T14:57:07.203Z,59.60
2022-07-27T14:59:36.398Z,62.70
2022-07-27T15:02:06.756Z,62.60
2022-07-27T15:04:35.435Z,64.10
2022-07-27T15:07:03.963Z,62.90
2022-07-27T15:09:36.118Z,60.90
2022-07-27T15:12:05.675Z,60.70
2022-07-27T15:14:39.054Z,60.20
2022-07-27T15:17:07.647Z,60.20
2022-07-27T15:19:40.127Z,60.30
2022-07-27T15:22:19.437Z,60.00
2022-07-27T15:24:48.297Z,61.10
2022-07-27T15:27:16.449Z,59.10
2022-07-27T15:29:44.960Z,59.30
2022-07-27T15:32:14.773Z,59.90
2022-07-27T15:34:45.510Z,61.20
2022-07-27T15:37:13.887Z,59.80
2022-07-27T15:39:42.433Z,60.80
2022-07-27T15:42:11.581Z,59.20
2022-07-27T15:44:41.471Z,60.80
2022-07-27T15:47:10.097Z,59.50
2022-07-27T15:49:40.993Z,60.00
2022-07-27T15:52:09.285Z,60.00
2022-07-27T15:54:45.131Z,58.60
2022-07-27T15:57:14.069Z,60.20
2022-07-27T15:59:49.185Z,59.70
2022-07-27T16:02:24.593Z,59.50
2022-07-27T16:04:55.110Z,59.00
2022-07-27T16:07:24.817Z,59.30
2022-07-27T16:09:53.411Z,61.10
2022-07-27T16:12:21.786Z,59.20
2022-07-27T16:14:50.055Z,60.40
2022-07-27T16:17:19.013Z,61.20
2022-07-27T16:19:47.817Z,60.60
2022-07-27T16:22:15.806Z,60.90
2022-07-27T16:24:44.091Z,60.60
2022-07-27T16:27:12.998Z,60.60
2022-07-27T16:29:41.341Z,60.60
2022-07-27T16:32:09.961Z,61.60
2022-07-27T16:34:38.469Z,62.10
2022-07-27T16:37:07.656Z,61.30
2022-07-27T16:43:56.184Z,63.90
2022-07-27T16:46:31.883Z,63.50
2022-07-27T16:49:06.422Z,64.50
2022-07-27T16:51:36.201Z,65.00
2022-07-27T16:54:13.217Z,64.80
2022-07-27T16:56:42.842Z,65.70
2022-07-27T16:59:16.238Z,66.60
2022-07-27T17:01:45.469Z,66.50
2022-07-27T17:04:21.316Z,67.20
2022-07-27T17:06:51.187Z,67.40
2022-07-27T17:09:25.296Z,67.90
2022-07-27T17:11:54.458Z,69.00
2022-07-27T17:14:22.494Z,69.30
2022-07-27T17:16:51.890Z,70.10
2022-07-27T17:19:21.632Z,70.20
2022-07-27T17:21:50.167Z,71.10
2022-07-27T17:24:18.415Z,71.60
2022-07-27T17:26:46.288Z,72.50
2022-07-27T17:29:15.640Z,72.60
2022-07-27T17:31:44.586Z,73.00
2022-07-27T17:34:13.236Z,73.70
2022-07-27T17:36:42.136Z,73.30
2022-07-27T17:39:11.314Z,74.00
2022-07-27T17:41:40.894Z,73.50
2022-07-27T17:44:42.233Z,74.80
2022-07-27T17:47:11.427Z,75.40
2022-07-27T17:54:20.965Z,75.70
2022-07-27T17:56:48.739Z,74.70
2022-07-27T17:59:37.506Z,74.90
2022-07-27T18:02:07.394Z,73.40
2022-07-27T18:04:39.371Z,73.50
2022-07-27T18:07:08.151Z,74.00
2022-07-27T18:09:36.722Z,74.80
2022-07-27T18:12:06.651Z,76.80
2022-07-27T18:14:35.016Z,78.60
2022-07-27T18:23:41.666Z,81.40
2022-07-27T18:26:12.232Z,82.40
2022-07-27T18:28:41.616Z,82.70
2022-07-27T18:31:12.686Z,83.70
2022-07-27T18:33:46.847Z,84.30
2022-07-27T18:36:17.420Z,85.10
2022-07-27T18:38:48.040Z,85.90
2022-07-27T18:41:19.286Z,86.30
2022-07-27T18:43:52.307Z,86.40
2022-07-27T18:46:23.761Z,87.50
2022-07-27T18:49:02.065Z,88.40
2022-07-27T18:51:30.879Z,88.80
2022-07-27T18:53:59.444Z,89.70
2022-07-27T18:56:38.417Z,90.20
2022-07-27T18:59:11.294Z,90.50
2022-07-27T19:01:40.453Z,90.90
2022-07-27T19:04:15.106Z,91.30
2022-07-27T19:06:54.449Z,91.90
2022-07-27T19:09:24.353Z,93.10
2022-07-27T19:12:33.965Z,93.50
2022-07-27T19:15:02.963Z,94.00
2022-07-27T19:17:33.966Z,94.60
2022-07-27T19:20:03.004Z,95.10
2022-07-27T19:22:42.058Z,95.50
2022-07-27T19:25:10.533Z,95.90
2022-07-27T19:27:44.151Z,96.30
2022-07-27T19:30:13.321Z,96.60
2022-07-27T19:33:21.007Z,97.10
2022-07-27T19:35:52.606Z,97.50
2022-07-27T19:38:22.759Z,98.00
2022-07-27T19:40:52.232Z,97.90
2022-07-27T19:43:23.202Z,98.40
2022-07-27T19:45:53.041Z,98.90
2022-07-27T19:48:22.697Z,99.10
2022-07-27T19:50:50.985Z,99.60
2022-07-27T19:53:20.256Z,99.80
2022-07-27T19:55:48.520Z,99.90
2022-07-27T19:58:18.502Z,99.90
2022-07-27T20:00:50.457Z,99.90
2022-07-27T20:03:23.862Z,99.90
2022-07-27T20:05:52.875Z,99.90
2022-07-27T20:08:24.997Z,99.90
2022-07-27T20:10:54.054Z,99.90
2022-07-27T20:13:23.110Z,99.90
2022-07-27T20:15:51.657Z,99.90
2022-07-27T20:18:21.852Z,99.90
2022-07-27T20:20:51.170Z,99.90
2022-07-27T20:23:20.119Z,99.90
2022-07-27T20:25:51.216Z,99.90
2022-07-27T20:28:28.272Z,99.90
2022-07-27T20:30:57.847Z,99.90
2022-07-27T20:33:32.531Z,99.90
2022-07-27T20:36:35.533Z,99.90
2022-07-27T20:39:07.439Z,99.90
2022-07-27T20:42:04.998Z,99.90
2022-07-27T20:44:40.031Z,99.90
2022-07-27T20:47:17.107Z,99.90
2022-07-27T20:49:45.952Z,99.90
2022-07-27T20:52:14.611Z,99.90
2022-07-27T20:54:43.172Z,99.90
2022-07-27T20:57:11.770Z,99.90
2022-07-27T20:59:39.931Z,99.90
2022-07-27T21:02:09.215Z,99.90
2022-07-27T21:04:38.129Z,99.90
2022-07-27T21:07:06.517Z,99.90
2022-07-27T21:09:40.250Z,99.90
2022-07-27T21:12:09.212Z,99.90
2022-07-27T21:14:38.017Z,99.90
2022-07-27T21:17:07.293Z,99.90
2022-07-27T21:19:36.023Z,99.90
2022-07-27T21:22:04.736Z,99.90
2022-07-27T21:25:15.939Z,99.90
2022-07-27T21:33:53.846Z,99.90
2022-07-27T21:36:22.302Z,99.90
2022-07-27T21:38:53.787Z,99.90
2022-07-27T21:41:22.389Z,99.90
2022-07-27T21:43:58.909Z,99.90
2022-07-27T21:46:31.893Z,99.90
2022-07-27T21:49:07.428Z,99.90
2022-07-27T21:52:08.557Z,99.90
2022-07-27T21:54:36.640Z,99.90
2022-07-27T21:57:37.317Z,99.90
2022-07-27T22:00:07.358Z,99.90
2022-07-27T22:02:39.491Z,99.90
2022-07-27T22:05:11.778Z,99.90
2022-07-27T22:07:40.131Z,99.90
2022-07-27T22:10:14.411Z,99.90
2022-07-27T22:12:42.624Z,99.90
2022-07-27T22:15:14.793Z,99.90
2022-07-27T22:18:23.805Z,99.90
2022-07-27T22:21:29.751Z,99.90
2022-07-27T22:23:58.107Z,99.90
2022-07-27T22:26:26.554Z,99.90
2022-07-27T22:29:37.425Z,99.90
2022-07-27T22:32:39.189Z,99.90
2022-07-27T22:35:08.797Z,99.90
2022-07-27T22:37:49.925Z,99.90
2022-07-27T22:40:19.135Z,99.90
2022-07-27T22:42:48.736Z,99.90
2022-07-27T22:45:17.872Z,99.90
2022-07-27T22:47:49.585Z,99.90
2022-07-27T22:50:22.137Z,99.90
2022-07-27T22:52:52.656Z,99.90
2022-07-27T22:55:22.223Z,99.90
2022-07-27T22:57:54.556Z,99.90
2022-07-27T23:00:27.006Z,99.90
2022-07-27T23:02:55.366Z,99.90
2022-07-27T23:05:29.277Z,99.90
2022-07-27T23:08:03.257Z,99.90
2022-07-27T23:11:03.777Z,99.90
2022-07-27T23:14:07.486Z,99.90
2022-07-27T23:16:35.979Z,99.90
2022-07-27T23:19:05.316Z,99.90
2022-07-27T23:26:19.019Z,99.90
2022-07-27T23:28:47.715Z,99.90
2022-07-27T23:31:48.490Z,99.90
2022-07-27T23:34:18.634Z,99.90
2022-07-27T23:36:47.156Z,99.90
2022-07-27T23:45:11.345Z,99.90
2022-07-27T23:47:42.319Z,99.90
2022-07-27T23:50:16.077Z,99.90
2022-07-27T23:52:44.460Z,99.90
2022-07-27T23:55:20.410Z,99.90
